sensor_id;sensor_type;location;lat;lon;timestamp;P1;durP1;ratioP1;P2;durP2;ratioP2
20743;SDS011;56303;52.160;-0.428;2024-03-08T00:01:34;45.83;;;32.93;;
20743;SDS011;56303;52.160;-0.428;2024-03-08T00:04:01;51.63;;;35.60;;
20743;SDS011;56303;52.160;-0.428;2024-03-08T00:06:28;44.23;;;33.47;;
20743;SDS011;56303;52.160;-0.428;2024-03-08T00:08:55;47.63;;;34.13;;
20743;SDS011;56303;52.160;-0.428;2024-03-08T00:11:22;45.73;;;34.43;;
20743;SDS011;56303;52.160;-0.428;2024-03-08T00:13:52;48.53;;;35.60;;
20743;SDS011;56303;52.160;-0.428;2024-03-08T00:16:19;49.83;;;33.63;;
20743;SDS011;56303;52.160;-0.428;2024-03-08T00:18:46;47.50;;;34.73;;
20743;SDS011;56303;52.160;-0.428;2024-03-08T00:21:13;48.10;;;35.07;;
20743;SDS011;56303;52.160;-0.428;2024-03-08T00:23:41;46.53;;;34.23;;
20743;SDS011;56303;52.160;-0.428;2024-03-08T00:26:08;50.43;;;33.37;;
20743;SDS011;56303;52.160;-0.428;2024-03-08T00:28:35;54.23;;;35.50;;
20743;SDS011;56303;52.160;-0.428;2024-03-08T00:31:02;49.57;;;35.87;;
20743;SDS011;56303;52.160;-0.428;2024-03-08T00:33:29;42.17;;;31.53;;
20743;SDS011;56303;52.160;-0.428;2024-03-08T00:35:57;49.93;;;33.43;;
20743;SDS011;56303;52.160;-0.428;2024-03-08T00:38:24;46.10;;;33.73;;
20743;SDS011;56303;52.160;-0.428;2024-03-08T00:40:51;52.53;;;35.27;;
20743;SDS011;56303;52.160;-0.428;2024-03-08T00:43:17;46.23;;;33.53;;
20743;SDS011;56303;52.160;-0.428;2024-03-08T00:45:44;46.10;;;34.53;;
20743;SDS011;56303;52.160;-0.428;2024-03-08T00:48:11;47.67;;;35.53;;
20743;SDS011;56303;52.160;-0.428;2024-03-08T00:50:38;45.83;;;33.47;;
20743;SDS011;56303;52.160;-0.428;2024-03-08T00:53:05;45.80;;;34.73;;
20743;SDS011;56303;52.160;-0.428;2024-03-08T00:55:32;46.53;;;36.03;;
20743;SDS011;56303;52.160;-0.428;2024-03-08T00:57:59;48.87;;;33.37;;
20743;SDS011;56303;52.160;-0.428;2024-03-08T01:00:27;51.53;;;35.67;;
20743;SDS011;56303;52.160;-0.428;2024-03-08T01:02:54;46.40;;;32.90;;
20743;SDS011;56303;52.160;-0.428;2024-03-08T01:05:21;44.53;;;33.03;;
20743;SDS011;56303;52.160;-0.428;2024-03-08T01:07:50;56.63;;;37.40;;
20743;SDS011;56303;52.160;-0.428;2024-03-08T01:10:17;46.00;;;33.77;;
20743;SDS011;56303;52.160;-0.428;2024-03-08T01:12:44;46.57;;;34.50;;
20743;SDS011;56303;52.160;-0.428;2024-03-08T01:15:11;51.77;;;36.73;;
20743;SDS011;56303;52.160;-0.428;2024-03-08T01:17:38;50.57;;;36.53;;
20743;SDS011;56303;52.160;-0.428;2024-03-08T01:20:06;43.40;;;35.27;;
20743;SDS011;56303;52.160;-0.428;2024-03-08T01:22:33;47.43;;;34.40;;
20743;SDS011;56303;52.160;-0.428;2024-03-08T01:25:00;45.37;;;34.37;;
20743;SDS011;56303;52.160;-0.428;2024-03-08T01:27:27;45.70;;;33.57;;
20743;SDS011;56303;52.160;-0.428;2024-03-08T01:29:54;49.27;;;35.00;;
20743;SDS011;56303;52.160;-0.428;2024-03-08T01:32:21;46.43;;;34.33;;
20743;SDS011;56303;52.160;-0.428;2024-03-08T01:34:49;41.57;;;33.53;;
20743;SDS011;56303;52.160;-0.428;2024-03-08T01:37:16;44.33;;;32.87;;
20743;SDS011;56303;52.160;-0.428;2024-03-08T01:39:43;47.80;;;34.70;;
20743;SDS011;56303;52.160;-0.428;2024-03-08T01:42:10;43.53;;;35.03;;
20743;SDS011;56303;52.160;-0.428;2024-03-08T01:44:39;47.10;;;34.63;;
20743;SDS011;56303;52.160;-0.428;2024-03-08T01:47:06;43.13;;;34.87;;
20743;SDS011;56303;52.160;-0.428;2024-03-08T01:49:33;44.83;;;35.70;;
20743;SDS011;56303;52.160;-0.428;2024-03-08T01:52:00;49.30;;;33.47;;
20743;SDS011;56303;52.160;-0.428;2024-03-08T01:54:27;46.87;;;33.87;;
20743;SDS011;56303;52.160;-0.428;2024-03-08T01:56:56;43.17;;;32.73;;
20743;SDS011;56303;52.160;-0.428;2024-03-08T01:59:25;44.40;;;35.77;;
20743;SDS011;56303;52.160;-0.428;2024-03-08T02:01:54;44.60;;;34.03;;
20743;SDS011;56303;52.160;-0.428;2024-03-08T02:04:23;40.47;;;32.83;;
20743;SDS011;56303;52.160;-0.428;2024-03-08T02:06:50;42.20;;;32.53;;
20743;SDS011;56303;52.160;-0.428;2024-03-08T02:09:18;46.07;;;34.40;;
20743;SDS011;56303;52.160;-0.428;2024-03-08T02:11:45;44.07;;;33.03;;
20743;SDS011;56303;52.160;-0.428;2024-03-08T02:14:12;41.73;;;33.20;;
20743;SDS011;56303;52.160;-0.428;2024-03-08T02:16:40;42.80;;;35.30;;
20743;SDS011;56303;52.160;-0.428;2024-03-08T02:19:07;45.80;;;34.60;;
20743;SDS011;56303;52.160;-0.428;2024-03-08T02:21:36;39.70;;;30.97;;
20743;SDS011;56303;52.160;-0.428;2024-03-08T02:24:04;45.87;;;34.23;;
20743;SDS011;56303;52.160;-0.428;2024-03-08T02:26:32;39.63;;;32.07;;
20743;SDS011;56303;52.160;-0.428;2024-03-08T02:28:59;40.23;;;32.87;;
20743;SDS011;56303;52.160;-0.428;2024-03-08T02:31:26;44.30;;;33.67;;
20743;SDS011;56303;52.160;-0.428;2024-03-08T02:33:53;42.50;;;32.87;;
20743;SDS011;56303;52.160;-0.428;2024-03-08T02:36:20;42.80;;;34.07;;
20743;SDS011;56303;52.160;-0.428;2024-03-08T02:38:47;42.27;;;34.27;;
20743;SDS011;56303;52.160;-0.428;2024-03-08T02:41:14;41.43;;;33.83;;
20743;SDS011;56303;52.160;-0.428;2024-03-08T02:43:41;41.63;;;33.27;;
20743;SDS011;56303;52.160;-0.428;2024-03-08T02:46:08;42.53;;;34.30;;
20743;SDS011;56303;52.160;-0.428;2024-03-08T02:48:36;41.93;;;31.83;;
20743;SDS011;56303;52.160;-0.428;2024-03-08T02:51:03;41.23;;;34.37;;
20743;SDS011;56303;52.160;-0.428;2024-03-08T02:53:30;40.53;;;31.83;;
20743;SDS011;56303;52.160;-0.428;2024-03-08T02:55:57;42.60;;;32.47;;
20743;SDS011;56303;52.160;-0.428;2024-03-08T02:58:24;46.60;;;33.43;;
20743;SDS011;56303;52.160;-0.428;2024-03-08T03:00:51;43.23;;;34.03;;
20743;SDS011;56303;52.160;-0.428;2024-03-08T03:03:18;41.57;;;33.03;;
20743;SDS011;56303;52.160;-0.428;2024-03-08T03:05:45;44.67;;;34.20;;
20743;SDS011;56303;52.160;-0.428;2024-03-08T03:08:14;41.47;;;32.40;;
20743;SDS011;56303;52.160;-0.428;2024-03-08T03:10:44;40.47;;;32.40;;
20743;SDS011;56303;52.160;-0.428;2024-03-08T03:13:12;44.43;;;34.87;;
20743;SDS011;56303;52.160;-0.428;2024-03-08T03:15:40;40.03;;;31.20;;
20743;SDS011;56303;52.160;-0.428;2024-03-08T03:18:08;45.40;;;31.83;;
20743;SDS011;56303;52.160;-0.428;2024-03-08T03:20:35;44.63;;;33.37;;
20743;SDS011;56303;52.160;-0.428;2024-03-08T03:23:09;43.33;;;32.57;;
20743;SDS011;56303;52.160;-0.428;2024-03-08T03:25:40;45.67;;;33.43;;
20743;SDS011;56303;52.160;-0.428;2024-03-08T03:28:08;43.80;;;32.40;;
20743;SDS011;56303;52.160;-0.428;2024-03-08T03:30:37;43.87;;;34.97;;
20743;SDS011;56303;52.160;-0.428;2024-03-08T03:33:05;44.37;;;32.83;;
20743;SDS011;56303;52.160;-0.428;2024-03-08T03:35:36;46.33;;;33.60;;
20743;SDS011;56303;52.160;-0.428;2024-03-08T03:38:04;47.20;;;33.10;;
20743;SDS011;56303;52.160;-0.428;2024-03-08T03:40:37;43.20;;;33.37;;
20743;SDS011;56303;52.160;-0.428;2024-03-08T03:43:05;45.37;;;36.03;;
20743;SDS011;56303;52.160;-0.428;2024-03-08T03:45:32;48.63;;;35.40;;
20743;SDS011;56303;52.160;-0.428;2024-03-08T03:48:02;45.67;;;34.70;;
20743;SDS011;56303;52.160;-0.428;2024-03-08T03:50:29;48.77;;;35.63;;
20743;SDS011;56303;52.160;-0.428;2024-03-08T03:52:56;46.93;;;36.43;;
20743;SDS011;56303;52.160;-0.428;2024-03-08T03:55:24;51.20;;;35.77;;
20743;SDS011;56303;52.160;-0.428;2024-03-08T03:57:51;49.73;;;36.83;;
20743;SDS011;56303;52.160;-0.428;2024-03-08T04:00:18;55.40;;;37.63;;
20743;SDS011;56303;52.160;-0.428;2024-03-08T04:02:45;52.97;;;34.23;;
20743;SDS011;56303;52.160;-0.428;2024-03-08T04:05:13;51.97;;;36.10;;
20743;SDS011;56303;52.160;-0.428;2024-03-08T04:07:39;47.40;;;35.07;;
20743;SDS011;56303;52.160;-0.428;2024-03-08T04:10:08;49.93;;;38.57;;
20743;SDS011;56303;52.160;-0.428;2024-03-08T04:12:35;53.17;;;36.63;;
20743;SDS011;56303;52.160;-0.428;2024-03-08T04:15:02;53.00;;;36.80;;
20743;SDS011;56303;52.160;-0.428;2024-03-08T04:17:31;60.10;;;39.03;;
20743;SDS011;56303;52.160;-0.428;2024-03-08T04:19:58;53.37;;;39.13;;
20743;SDS011;56303;52.160;-0.428;2024-03-08T04:22:25;49.20;;;34.77;;
20743;SDS011;56303;52.160;-0.428;2024-03-08T04:24:52;53.10;;;37.73;;
20743;SDS011;56303;52.160;-0.428;2024-03-08T04:27:19;53.07;;;36.47;;
20743;SDS011;56303;52.160;-0.428;2024-03-08T04:29:45;59.73;;;39.03;;
20743;SDS011;56303;52.160;-0.428;2024-03-08T04:32:13;57.83;;;40.83;;
20743;SDS011;56303;52.160;-0.428;2024-03-08T04:34:39;54.60;;;38.33;;
20743;SDS011;56303;52.160;-0.428;2024-03-08T04:37:11;61.60;;;40.03;;
20743;SDS011;56303;52.160;-0.428;2024-03-08T04:39:40;49.37;;;35.50;;
20743;SDS011;56303;52.160;-0.428;2024-03-08T04:42:07;54.17;;;36.63;;
20743;SDS011;56303;52.160;-0.428;2024-03-08T04:44:36;56.43;;;35.77;;
20743;SDS011;56303;52.160;-0.428;2024-03-08T04:47:04;54.53;;;37.53;;
20743;SDS011;56303;52.160;-0.428;2024-03-08T04:49:34;53.23;;;37.57;;
20743;SDS011;56303;52.160;-0.428;2024-03-08T04:52:01;53.23;;;36.13;;
20743;SDS011;56303;52.160;-0.428;2024-03-08T04:54:32;57.77;;;36.10;;
20743;SDS011;56303;52.160;-0.428;2024-03-08T04:56:59;54.83;;;38.73;;
20743;SDS011;56303;52.160;-0.428;2024-03-08T04:59:27;48.57;;;35.27;;
20743;SDS011;56303;52.160;-0.428;2024-03-08T05:01:54;56.77;;;37.93;;
20743;SDS011;56303;52.160;-0.428;2024-03-08T05:04:22;55.10;;;38.07;;
20743;SDS011;56303;52.160;-0.428;2024-03-08T05:06:49;55.93;;;39.87;;
20743;SDS011;56303;52.160;-0.428;2024-03-08T05:09:16;53.20;;;37.13;;
20743;SDS011;56303;52.160;-0.428;2024-03-08T05:11:44;53.53;;;37.67;;
20743;SDS011;56303;52.160;-0.428;2024-03-08T05:14:12;54.33;;;40.67;;
20743;SDS011;56303;52.160;-0.428;2024-03-08T05:16:43;55.60;;;37.40;;
20743;SDS011;56303;52.160;-0.428;2024-03-08T05:19:15;53.10;;;36.90;;
20743;SDS011;56303;52.160;-0.428;2024-03-08T05:21:47;54.90;;;38.93;;
20743;SDS011;56303;52.160;-0.428;2024-03-08T05:24:14;52.10;;;38.20;;
20743;SDS011;56303;52.160;-0.428;2024-03-08T05:26:45;56.90;;;39.80;;
20743;SDS011;56303;52.160;-0.428;2024-03-08T05:29:13;47.70;;;36.83;;
20743;SDS011;56303;52.160;-0.428;2024-03-08T05:34:15;52.17;;;38.10;;
20743;SDS011;56303;52.160;-0.428;2024-03-08T05:36:42;52.07;;;37.33;;
20743;SDS011;56303;52.160;-0.428;2024-03-08T05:39:13;48.43;;;36.53;;
20743;SDS011;56303;52.160;-0.428;2024-03-08T05:41:41;55.93;;;36.13;;
20743;SDS011;56303;52.160;-0.428;2024-03-08T05:44:09;50.33;;;35.80;;
20743;SDS011;56303;52.160;-0.428;2024-03-08T05:46:37;52.50;;;38.07;;
20743;SDS011;56303;52.160;-0.428;2024-03-08T05:49:04;52.47;;;37.23;;
20743;SDS011;56303;52.160;-0.428;2024-03-08T05:51:36;57.20;;;38.63;;
20743;SDS011;56303;52.160;-0.428;2024-03-08T05:54:06;50.17;;;35.77;;
20743;SDS011;56303;52.160;-0.428;2024-03-08T05:56:37;62.30;;;37.27;;
20743;SDS011;56303;52.160;-0.428;2024-03-08T05:59:04;53.50;;;36.13;;
20743;SDS011;56303;52.160;-0.428;2024-03-08T06:01:31;49.23;;;37.17;;
20743;SDS011;56303;52.160;-0.428;2024-03-08T06:04:03;55.57;;;36.77;;
20743;SDS011;56303;52.160;-0.428;2024-03-08T06:06:30;55.37;;;37.10;;
20743;SDS011;56303;52.160;-0.428;2024-03-08T06:08:57;50.63;;;36.37;;
20743;SDS011;56303;52.160;-0.428;2024-03-08T06:11:25;51.53;;;38.33;;
20743;SDS011;56303;52.160;-0.428;2024-03-08T06:13:57;56.60;;;37.97;;
20743;SDS011;56303;52.160;-0.428;2024-03-08T06:16:26;53.60;;;37.20;;
20743;SDS011;56303;52.160;-0.428;2024-03-08T06:18:56;53.63;;;39.67;;
20743;SDS011;56303;52.160;-0.428;2024-03-08T06:21:24;56.17;;;39.83;;
20743;SDS011;56303;52.160;-0.428;2024-03-08T06:23:53;55.77;;;38.97;;
20743;SDS011;56303;52.160;-0.428;2024-03-08T06:26:21;53.97;;;38.07;;
20743;SDS011;56303;52.160;-0.428;2024-03-08T06:28:48;49.33;;;36.87;;
20743;SDS011;56303;52.160;-0.428;2024-03-08T06:31:15;52.43;;;37.70;;
20743;SDS011;56303;52.160;-0.428;2024-03-08T06:33:42;52.57;;;37.87;;
20743;SDS011;56303;52.160;-0.428;2024-03-08T06:36:09;54.23;;;36.50;;
20743;SDS011;56303;52.160;-0.428;2024-03-08T06:38:38;52.23;;;36.63;;
20743;SDS011;56303;52.160;-0.428;2024-03-08T06:41:09;46.27;;;38.43;;
20743;SDS011;56303;52.160;-0.428;2024-03-08T06:43:42;53.77;;;38.50;;
20743;SDS011;56303;52.160;-0.428;2024-03-08T06:46:09;52.43;;;38.23;;
20743;SDS011;56303;52.160;-0.428;2024-03-08T06:48:39;53.23;;;38.80;;
20743;SDS011;56303;52.160;-0.428;2024-03-08T06:51:06;53.63;;;37.10;;
20743;SDS011;56303;52.160;-0.428;2024-03-08T06:53:34;54.07;;;38.50;;
20743;SDS011;56303;52.160;-0.428;2024-03-08T06:56:02;55.53;;;40.10;;
20743;SDS011;56303;52.160;-0.428;2024-03-08T06:58:29;61.57;;;40.63;;
20743;SDS011;56303;52.160;-0.428;2024-03-08T07:00:56;57.23;;;41.90;;
20743;SDS011;56303;52.160;-0.428;2024-03-08T07:03:27;60.63;;;42.17;;
20743;SDS011;56303;52.160;-0.428;2024-03-08T07:05:56;58.03;;;41.70;;
20743;SDS011;56303;52.160;-0.428;2024-03-08T07:08:26;69.70;;;43.80;;
20743;SDS011;56303;52.160;-0.428;2024-03-08T07:10:54;59.57;;;42.03;;
20743;SDS011;56303;52.160;-0.428;2024-03-08T07:13:21;54.67;;;40.00;;
20743;SDS011;56303;52.160;-0.428;2024-03-08T07:15:48;63.40;;;42.70;;
20743;SDS011;56303;52.160;-0.428;2024-03-08T07:18:15;56.33;;;40.97;;
20743;SDS011;56303;52.160;-0.428;2024-03-08T07:20:42;52.13;;;39.10;;
20743;SDS011;56303;52.160;-0.428;2024-03-08T07:23:11;57.30;;;42.10;;
20743;SDS011;56303;52.160;-0.428;2024-03-08T07:25:58;55.30;;;39.43;;
20743;SDS011;56303;52.160;-0.428;2024-03-08T07:28:27;62.80;;;41.60;;
20743;SDS011;56303;52.160;-0.428;2024-03-08T07:30:59;55.63;;;40.67;;
20743;SDS011;56303;52.160;-0.428;2024-03-08T07:33:52;51.00;;;39.40;;
20743;SDS011;56303;52.160;-0.428;2024-03-08T07:36:20;55.87;;;38.00;;
20743;SDS011;56303;52.160;-0.428;2024-03-08T07:38:48;57.93;;;41.73;;
20743;SDS011;56303;52.160;-0.428;2024-03-08T07:41:16;54.93;;;40.33;;
20743;SDS011;56303;52.160;-0.428;2024-03-08T07:43:43;56.80;;;41.20;;
20743;SDS011;56303;52.160;-0.428;2024-03-08T07:46:10;56.93;;;41.10;;
20743;SDS011;56303;52.160;-0.428;2024-03-08T07:48:37;54.50;;;39.37;;
20743;SDS011;56303;52.160;-0.428;2024-03-08T07:51:04;58.20;;;41.57;;
20743;SDS011;56303;52.160;-0.428;2024-03-08T07:53:31;64.67;;;41.50;;
20743;SDS011;56303;52.160;-0.428;2024-03-08T07:55:58;54.90;;;36.57;;
20743;SDS011;56303;52.160;-0.428;2024-03-08T07:58:26;57.53;;;39.07;;
20743;SDS011;56303;52.160;-0.428;2024-03-08T08:00:54;52.33;;;38.40;;
20743;SDS011;56303;52.160;-0.428;2024-03-08T08:03:21;51.03;;;38.83;;
20743;SDS011;56303;52.160;-0.428;2024-03-08T08:05:48;53.17;;;41.90;;
20743;SDS011;56303;52.160;-0.428;2024-03-08T08:08:15;53.53;;;40.03;;
20743;SDS011;56303;52.160;-0.428;2024-03-08T08:10:42;48.83;;;38.73;;
20743;SDS011;56303;52.160;-0.428;2024-03-08T08:13:09;46.27;;;36.40;;
20743;SDS011;56303;52.160;-0.428;2024-03-08T08:15:37;49.40;;;37.13;;
20743;SDS011;56303;52.160;-0.428;2024-03-08T08:18:04;54.43;;;38.57;;
20743;SDS011;56303;52.160;-0.428;2024-03-08T08:20:33;47.73;;;38.97;;
20743;SDS011;56303;52.160;-0.428;2024-03-08T08:23:00;49.50;;;38.50;;
20743;SDS011;56303;52.160;-0.428;2024-03-08T08:25:27;51.50;;;37.77;;
20743;SDS011;56303;52.160;-0.428;2024-03-08T08:27:54;46.93;;;39.63;;
20743;SDS011;56303;52.160;-0.428;2024-03-08T08:30:21;47.97;;;37.73;;
20743;SDS011;56303;52.160;-0.428;2024-03-08T08:32:48;50.27;;;38.80;;
20743;SDS011;56303;52.160;-0.428;2024-03-08T08:35:16;52.00;;;37.13;;
20743;SDS011;56303;52.160;-0.428;2024-03-08T08:37:45;48.90;;;39.90;;
20743;SDS011;56303;52.160;-0.428;2024-03-08T08:40:12;49.17;;;39.80;;
20743;SDS011;56303;52.160;-0.428;2024-03-08T08:42:44;48.30;;;39.40;;
20743;SDS011;56303;52.160;-0.428;2024-03-08T08:45:15;46.50;;;37.73;;
20743;SDS011;56303;52.160;-0.428;2024-03-08T08:47:48;48.10;;;37.77;;
20743;SDS011;56303;52.160;-0.428;2024-03-08T08:50:18;46.43;;;38.83;;
20743;SDS011;56303;52.160;-0.428;2024-03-08T08:52:51;49.93;;;38.53;;
20743;SDS011;56303;52.160;-0.428;2024-03-08T08:55:19;45.10;;;36.80;;
20743;SDS011;56303;52.160;-0.428;2024-03-08T08:57:53;51.47;;;39.10;;
20743;SDS011;56303;52.160;-0.428;2024-03-08T09:00:20;48.73;;;36.67;;
20743;SDS011;56303;52.160;-0.428;2024-03-08T09:02:48;46.97;;;36.63;;
20743;SDS011;56303;52.160;-0.428;2024-03-08T09:05:15;47.60;;;36.33;;
20743;SDS011;56303;52.160;-0.428;2024-03-08T09:07:43;48.67;;;39.83;;
20743;SDS011;56303;52.160;-0.428;2024-03-08T09:10:13;48.70;;;40.30;;
20743;SDS011;56303;52.160;-0.428;2024-03-08T09:12:43;46.70;;;39.73;;
20743;SDS011;56303;52.160;-0.428;2024-03-08T09:15:11;46.53;;;38.77;;
20743;SDS011;56303;52.160;-0.428;2024-03-08T09:17:39;51.37;;;40.27;;
20743;SDS011;56303;52.160;-0.428;2024-03-08T09:20:07;48.33;;;37.63;;
20743;SDS011;56303;52.160;-0.428;2024-03-08T09:22:36;46.37;;;36.30;;
20743;SDS011;56303;52.160;-0.428;2024-03-08T09:25:03;46.83;;;36.77;;
20743;SDS011;56303;52.160;-0.428;2024-03-08T09:27:32;55.20;;;39.00;;
20743;SDS011;56303;52.160;-0.428;2024-03-08T09:30:04;47.30;;;36.73;;
20743;SDS011;56303;52.160;-0.428;2024-03-08T09:32:34;50.10;;;37.67;;
20743;SDS011;56303;52.160;-0.428;2024-03-08T09:35:01;43.17;;;34.97;;
20743;SDS011;56303;52.160;-0.428;2024-03-08T09:37:29;44.97;;;36.33;;
20743;SDS011;56303;52.160;-0.428;2024-03-08T09:39:57;46.23;;;37.83;;
20743;SDS011;56303;52.160;-0.428;2024-03-08T09:42:26;42.97;;;36.30;;
20743;SDS011;56303;52.160;-0.428;2024-03-08T09:44:53;47.33;;;39.67;;
20743;SDS011;56303;52.160;-0.428;2024-03-08T09:47:20;51.50;;;38.13;;
20743;SDS011;56303;52.160;-0.428;2024-03-08T09:49:51;43.57;;;35.90;;
20743;SDS011;56303;52.160;-0.428;2024-03-08T09:52:19;48.97;;;36.27;;
20743;SDS011;56303;52.160;-0.428;2024-03-08T09:54:46;45.53;;;36.30;;
20743;SDS011;56303;52.160;-0.428;2024-03-08T09:57:13;46.10;;;36.63;;
20743;SDS011;56303;52.160;-0.428;2024-03-08T09:59:43;44.63;;;36.20;;
20743;SDS011;56303;52.160;-0.428;2024-03-08T10:02:14;41.53;;;35.87;;
20743;SDS011;56303;52.160;-0.428;2024-03-08T10:04:41;40.67;;;34.73;;
20743;SDS011;56303;52.160;-0.428;2024-03-08T10:07:09;43.50;;;33.93;;
20743;SDS011;56303;52.160;-0.428;2024-03-08T10:09:36;42.03;;;36.70;;
20743;SDS011;56303;52.160;-0.428;2024-03-08T10:12:04;41.67;;;34.03;;
20743;SDS011;56303;52.160;-0.428;2024-03-08T10:14:31;39.13;;;34.93;;
20743;SDS011;56303;52.160;-0.428;2024-03-08T10:16:59;37.80;;;33.80;;
20743;SDS011;56303;52.160;-0.428;2024-03-08T10:19:27;41.50;;;33.40;;
20743;SDS011;56303;52.160;-0.428;2024-03-08T10:21:57;41.67;;;35.10;;
20743;SDS011;56303;52.160;-0.428;2024-03-08T10:24:25;41.30;;;33.57;;
20743;SDS011;56303;52.160;-0.428;2024-03-08T10:26:53;39.20;;;34.30;;
20743;SDS011;56303;52.160;-0.428;2024-03-08T10:29:20;41.63;;;33.43;;
20743;SDS011;56303;52.160;-0.428;2024-03-08T10:31:47;39.53;;;34.77;;
20743;SDS011;56303;52.160;-0.428;2024-03-08T10:34:16;38.67;;;33.00;;
20743;SDS011;56303;52.160;-0.428;2024-03-08T10:36:43;42.80;;;34.93;;
20743;SDS011;56303;52.160;-0.428;2024-03-08T10:39:17;38.20;;;34.00;;
20743;SDS011;56303;52.160;-0.428;2024-03-08T10:41:58;39.40;;;33.77;;
20743;SDS011;56303;52.160;-0.428;2024-03-08T10:52:31;40.60;;;32.53;;
20743;SDS011;56303;52.160;-0.428;2024-03-08T10:55:01;40.97;;;35.10;;
20743;SDS011;56303;52.160;-0.428;2024-03-08T10:57:28;40.03;;;32.73;;
20743;SDS011;56303;52.160;-0.428;2024-03-08T10:59:55;36.27;;;31.97;;
20743;SDS011;56303;52.160;-0.428;2024-03-08T11:02:25;37.10;;;32.73;;
20743;SDS011;56303;52.160;-0.428;2024-03-08T11:04:53;39.03;;;34.80;;
20743;SDS011;56303;52.160;-0.428;2024-03-08T11:07:23;36.60;;;31.67;;
20743;SDS011;56303;52.160;-0.428;2024-03-08T11:09:54;36.63;;;32.73;;
20743;SDS011;56303;52.160;-0.428;2024-03-08T11:12:29;33.00;;;29.50;;
20743;SDS011;56303;52.160;-0.428;2024-03-08T11:15:03;35.87;;;30.80;;
20743;SDS011;56303;52.160;-0.428;2024-03-08T11:20:14;34.47;;;29.53;;
20743;SDS011;56303;52.160;-0.428;2024-03-08T11:22:50;29.10;;;25.97;;
20743;SDS011;56303;52.160;-0.428;2024-03-08T11:28:12;34.07;;;29.20;;
20743;SDS011;56303;52.160;-0.428;2024-03-08T11:33:27;29.10;;;26.17;;
20743;SDS011;56303;52.160;-0.428;2024-03-08T11:38:41;28.80;;;25.27;;
20743;SDS011;56303;52.160;-0.428;2024-03-08T11:41:16;27.57;;;23.43;;
20743;SDS011;56303;52.160;-0.428;2024-03-08T11:43:47;28.83;;;25.07;;
20743;SDS011;56303;52.160;-0.428;2024-03-08T11:46:16;28.03;;;25.03;;
20743;SDS011;56303;52.160;-0.428;2024-03-08T11:48:46;28.33;;;24.77;;
20743;SDS011;56303;52.160;-0.428;2024-03-08T11:51:15;27.83;;;24.67;;
20743;SDS011;56303;52.160;-0.428;2024-03-08T11:53:45;27.33;;;23.93;;
20743;SDS011;56303;52.160;-0.428;2024-03-08T11:56:14;26.10;;;23.07;;
20743;SDS011;56303;52.160;-0.428;2024-03-08T11:58:45;27.07;;;24.17;;
20743;SDS011;56303;52.160;-0.428;2024-03-08T12:01:25;25.93;;;23.13;;
20743;SDS011;56303;52.160;-0.428;2024-03-08T12:03:53;25.60;;;22.77;;
20743;SDS011;56303;52.160;-0.428;2024-03-08T12:06:21;27.37;;;24.20;;
20743;SDS011;56303;52.160;-0.428;2024-03-08T12:08:48;27.60;;;23.67;;
20743;SDS011;56303;52.160;-0.428;2024-03-08T12:11:18;25.73;;;23.07;;
20743;SDS011;56303;52.160;-0.428;2024-03-08T12:13:50;25.77;;;23.00;;
20743;SDS011;56303;52.160;-0.428;2024-03-08T12:16:18;25.77;;;23.07;;
20743;SDS011;56303;52.160;-0.428;2024-03-08T12:18:46;25.97;;;23.20;;
20743;SDS011;56303;52.160;-0.428;2024-03-08T12:21:13;27.33;;;23.23;;
20743;SDS011;56303;52.160;-0.428;2024-03-08T12:23:44;24.43;;;21.80;;
20743;SDS011;56303;52.160;-0.428;2024-03-08T12:26:15;24.97;;;22.43;;
20743;SDS011;56303;52.160;-0.428;2024-03-08T12:28:43;24.13;;;21.27;;
20743;SDS011;56303;52.160;-0.428;2024-03-08T12:31:14;23.20;;;20.70;;
20743;SDS011;56303;52.160;-0.428;2024-03-08T12:33:55;25.67;;;22.57;;
20743;SDS011;56303;52.160;-0.428;2024-03-08T12:36:25;26.00;;;21.90;;
20743;SDS011;56303;52.160;-0.428;2024-03-08T12:38:53;24.17;;;21.67;;
20743;SDS011;56303;52.160;-0.428;2024-03-08T12:41:23;23.53;;;21.13;;
20743;SDS011;56303;52.160;-0.428;2024-03-08T12:43:50;23.27;;;20.77;;
20743;SDS011;56303;52.160;-0.428;2024-03-08T12:46:17;22.47;;;19.97;;
20743;SDS011;56303;52.160;-0.428;2024-03-08T12:48:48;23.70;;;21.23;;
20743;SDS011;56303;52.160;-0.428;2024-03-08T12:51:16;22.93;;;20.50;;
20743;SDS011;56303;52.160;-0.428;2024-03-08T12:53:44;21.90;;;19.30;;
20743;SDS011;56303;52.160;-0.428;2024-03-08T12:56:20;22.60;;;20.17;;
20743;SDS011;56303;52.160;-0.428;2024-03-08T12:58:56;21.13;;;18.93;;
20743;SDS011;56303;52.160;-0.428;2024-03-08T13:01:23;22.00;;;19.77;;
20743;SDS011;56303;52.160;-0.428;2024-03-08T13:03:51;21.00;;;18.47;;
20743;SDS011;56303;52.160;-0.428;2024-03-08T13:06:18;22.23;;;18.40;;
20743;SDS011;56303;52.160;-0.428;2024-03-08T13:08:51;20.17;;;17.90;;
20743;SDS011;56303;52.160;-0.428;2024-03-08T13:11:21;22.43;;;17.93;;
20743;SDS011;56303;52.160;-0.428;2024-03-08T13:13:53;20.17;;;17.87;;
20743;SDS011;56303;52.160;-0.428;2024-03-08T13:16:20;21.00;;;17.37;;
20743;SDS011;56303;52.160;-0.428;2024-03-08T13:18:47;22.40;;;18.10;;
20743;SDS011;56303;52.160;-0.428;2024-03-08T13:21:20;19.20;;;17.10;;
20743;SDS011;56303;52.160;-0.428;2024-03-08T13:23:50;19.07;;;17.13;;
20743;SDS011;56303;52.160;-0.428;2024-03-08T13:26:19;20.13;;;18.03;;
20743;SDS011;56303;52.160;-0.428;2024-03-08T13:28:46;18.93;;;16.10;;
20743;SDS011;56303;52.160;-0.428;2024-03-08T13:31:21;19.07;;;16.43;;
20743;SDS011;56303;52.160;-0.428;2024-03-08T13:33:48;18.77;;;16.77;;
20743;SDS011;56303;52.160;-0.428;2024-03-08T13:36:16;20.47;;;18.03;;
20743;SDS011;56303;52.160;-0.428;2024-03-08T13:38:43;19.50;;;17.60;;
20743;SDS011;56303;52.160;-0.428;2024-03-08T13:41:12;21.00;;;16.87;;
20743;SDS011;56303;52.160;-0.428;2024-03-08T13:43:41;19.20;;;17.37;;
20743;SDS011;56303;52.160;-0.428;2024-03-08T13:46:08;20.60;;;17.80;;
20743;SDS011;56303;52.160;-0.428;2024-03-08T13:48:36;20.03;;;17.93;;
20743;SDS011;56303;52.160;-0.428;2024-03-08T13:51:07;20.10;;;18.13;;
20743;SDS011;56303;52.160;-0.428;2024-03-08T13:53:36;20.73;;;18.57;;
20743;SDS011;56303;52.160;-0.428;2024-03-08T13:56:03;20.13;;;17.73;;
20743;SDS011;56303;52.160;-0.428;2024-03-08T13:58:32;18.73;;;16.87;;
20743;SDS011;56303;52.160;-0.428;2024-03-08T14:00:59;21.00;;;18.83;;
20743;SDS011;56303;52.160;-0.428;2024-03-08T14:03:27;18.97;;;16.17;;
20743;SDS011;56303;52.160;-0.428;2024-03-08T14:05:53;17.50;;;15.70;;
20743;SDS011;56303;52.160;-0.428;2024-03-08T14:08:22;17.47;;;15.67;;
20743;SDS011;56303;52.160;-0.428;2024-03-08T14:10:51;16.63;;;14.90;;
20743;SDS011;56303;52.160;-0.428;2024-03-08T14:13:20;17.37;;;15.43;;
20743;SDS011;56303;52.160;-0.428;2024-03-08T14:15:47;17.47;;;15.67;;
20743;SDS011;56303;52.160;-0.428;2024-03-08T14:18:14;18.50;;;16.37;;
20743;SDS011;56303;52.160;-0.428;2024-03-08T14:20:42;18.67;;;16.67;;
20743;SDS011;56303;52.160;-0.428;2024-03-08T14:23:08;20.13;;;18.07;;
20743;SDS011;56303;52.160;-0.428;2024-03-08T14:25:36;17.73;;;15.83;;
20743;SDS011;56303;52.160;-0.428;2024-03-08T14:28:03;19.67;;;16.73;;
20743;SDS011;56303;52.160;-0.428;2024-03-08T14:30:34;18.27;;;16.37;;
20743;SDS011;56303;52.160;-0.428;2024-03-08T14:33:02;19.03;;;17.07;;
20743;SDS011;56303;52.160;-0.428;2024-03-08T14:35:29;18.10;;;16.20;;
20743;SDS011;56303;52.160;-0.428;2024-03-08T14:37:56;17.50;;;15.53;;